Time;durP1;ratioP1;P1;durP2;ratioP2;P2;SDS_P1;SDS_P2;PMS_P1;PMS_P2;Temp;Humidity;BMP_temperature;BMP_pressure;BME280_temperature;BME280_humidity;BME280_pressure;Samples;Min_cycle;Max_cycle;Signal;HPM_P1;HPM_P2
2021/08/14 00:01:17;;;;;;;9.70;7.83;;;;;;;;;;5032887;28;20213;-60
2021/08/14 00:03:42;;;;;;;9.37;8.50;;;;;;;;;;5033282;28;20634;-60
2021/08/14 00:06:07;;;;;;;9.00;8.20;;;;;;;;;;5032787;28;20257;-61
2021/08/14 00:08:32;;;;;;;8.27;7.47;;;;;;;;;;5033266;28;20626;-60
2021/08/14 00:10:58;;;;;;;8.03;7.23;;;;;;;;;;5032799;28;20229;-60
2021/08/14 00:13:23;;;;;;;10.03;7.50;;;;;;;;;;5032961;28;20244;-61
2021/08/14 00:15:48;;;;;;;7.50;6.80;;;;;;;;;;5033286;28;20325;-60
2021/08/14 00:18:14;;;;;;;7.63;6.83;;;;;;;;;;5032678;28;20247;-60
2021/08/14 00:20:39;;;;;;;6.80;6.20;;;;;;;;;;5033135;28;20214;-60
2021/08/14 00:23:04;;;;;;;7.07;6.17;;;;;;;;;;5032940;28;20241;-60
2021/08/14 00:25:30;;;;;;;6.40;5.90;;;;;;;;;;5036189;28;20237;-60
2021/08/14 00:27:55;;;;;;;8.10;6.70;;;;;;;;;;5036763;28;20673;-60
2021/08/14 00:30:21;;;;;;;7.87;7.07;;;;;;;;;;5036186;28;20222;-60
2021/08/14 00:32:46;;;;;;;9.03;7.57;;;;;;;;;;5036644;28;20267;-59
2021/08/14 00:35:11;;;;;;;6.90;6.30;;;;;;;;;;5036250;28;20217;-60
2021/08/14 00:37:37;;;;;;;7.90;7.10;;;;;;;;;;5036582;28;20236;-60
2021/08/14 00:40:03;;;;;;;6.97;6.37;;;;;;;;;;5035873;28;20299;-59
2021/08/14 00:42:29;;;;;;;7.57;6.77;;;;;;;;;;5036290;28;20210;-60
2021/08/14 00:44:54;;;;;;;11.50;7.63;;;;;;;;;;5036485;28;20466;-59
2021/08/14 00:47:24;;;;;;;9.50;6.63;;;;;;;;;;5036116;28;20296;-59
2021/08/14 00:49:49;;;;;;;6.27;5.77;;;;;;;;;;5036289;28;20260;-60
2021/08/14 00:52:14;;;;;;;7.50;6.70;;;;;;;;;;5035912;28;20924;-60
2021/08/14 00:54:40;;;;;;;7.50;5.93;;;;;;;;;;5036267;28;20222;-60
2021/08/14 00:57:05;;;;;;;8.47;6.47;;;;;;;;;;5035595;28;20304;-59
2021/08/14 00:59:31;;;;;;;6.67;6.07;;;;;;;;;;5036124;28;20210;-59
2021/08/14 01:01:56;;;;;;;6.97;6.30;;;;;;;;;;5036021;28;20232;-61
2021/08/14 01:04:22;;;;;;;7.17;6.47;;;;;;;;;;5035754;28;20213;-59
2021/08/14 01:06:48;;;;;;;7.20;6.40;;;;;;;;;;5036108;28;20359;-60
2021/08/14 01:09:13;;;;;;;6.70;6.00;;;;;;;;;;5035530;28;20504;-60
2021/08/14 01:11:39;;;;;;;5.80;5.30;;;;;;;;;;5035923;28;20229;-60
2021/08/14 01:14:06;;;;;;;6.50;5.60;;;;;;;;;;5034332;28;20302;-60
2021/08/14 01:16:31;;;;;;;6.73;5.93;;;;;;;;;;5035926;28;20257;-59
2021/08/14 01:18:57;;;;;;;7.03;6.30;;;;;;;;;;5035894;28;20456;-60
2021/08/14 01:21:23;;;;;;;6.43;5.80;;;;;;;;;;5035219;28;20221;-60
2021/08/14 01:23:51;;;;;;;6.97;6.20;;;;;;;;;;5034860;28;20308;-60
2021/08/14 01:26:17;;;;;;;5.90;5.40;;;;;;;;;;5035233;28;20808;-60
2021/08/14 01:28:43;;;;;;;6.63;6.00;;;;;;;;;;5035584;28;20925;-60
2021/08/14 01:31:10;;;;;;;6.60;6.00;;;;;;;;;;5035046;28;20480;-61
2021/08/14 01:33:38;;;;;;;7.83;6.20;;;;;;;;;;5035423;28;20461;-60
2021/08/14 01:36:05;;;;;;;7.80;6.33;;;;;;;;;;5035066;28;21020;-60
2021/08/14 01:38:30;;;;;;;6.73;6.23;;;;;;;;;;5035439;28;20518;-61
2021/08/14 01:40:56;;;;;;;7.90;6.90;;;;;;;;;;5035282;28;20476;-60
2021/08/14 01:43:21;;;;;;;7.47;6.60;;;;;;;;;;5034943;28;20233;-60
2021/08/14 01:45:50;;;;;;;9.03;6.60;;;;;;;;;;5035408;28;20649;-59
2021/08/14 01:48:15;;;;;;;6.63;5.87;;;;;;;;;;5034906;28;20287;-60
2021/08/14 01:50:41;;;;;;;7.70;7.00;;;;;;;;;;5035005;28;20948;-60
2021/08/14 01:53:06;;;;;;;6.87;5.93;;;;;;;;;;5034828;28;20248;-60
2021/08/14 01:55:31;;;;;;;8.63;6.47;;;;;;;;;;5035008;28;20222;-60
2021/08/14 01:57:57;;;;;;;7.40;6.70;;;;;;;;;;5034782;28;20312;-61
2021/08/14 02:00:22;;;;;;;8.20;6.17;;;;;;;;;;5034508;28;20226;-61
2021/08/14 02:02:47;;;;;;;10.17;5.50;;;;;;;;;;5035112;28;20218;-60
2021/08/14 02:05:13;;;;;;;11.77;7.53;;;;;;;;;;5034626;28;20279;-60
2021/08/14 02:07:38;;;;;;;7.43;5.70;;;;;;;;;;5034858;28;20214;-60
2021/08/14 02:10:04;;;;;;;6.07;5.47;;;;;;;;;;5034288;28;20226;-59
2021/08/14 02:12:29;;;;;;;6.83;5.00;;;;;;;;;;5034406;28;20226;-59
2021/08/14 02:14:55;;;;;;;5.30;4.80;;;;;;;;;;5034789;28;20302;-61
2021/08/14 02:17:20;;;;;;;6.77;5.50;;;;;;;;;;5034351;28;20254;-60
2021/08/14 02:19:45;;;;;;;6.87;4.57;;;;;;;;;;5034541;28;20693;-61
2021/08/14 02:22:10;;;;;;;7.17;6.47;;;;;;;;;;5034458;28;20218;-61
2021/08/14 02:24:36;;;;;;;6.63;5.17;;;;;;;;;;5034510;28;20237;-60
2021/08/14 02:27:03;;;;;;;5.70;5.20;;;;;;;;;;5034445;28;20303;-60
2021/08/14 02:29:29;;;;;;;6.47;5.13;;;;;;;;;;5033846;28;20210;-60
2021/08/14 02:31:54;;;;;;;5.67;5.17;;;;;;;;;;5034481;28;20803;-60
2021/08/14 02:34:19;;;;;;;6.07;5.43;;;;;;;;;;5034021;28;20554;-61
2021/08/14 02:36:44;;;;;;;7.00;5.40;;;;;;;;;;5034374;28;20214;-59
2021/08/14 02:39:10;;;;;;;6.70;6.10;;;;;;;;;;5033939;28;20715;-60
2021/08/14 02:41:36;;;;;;;6.60;5.70;;;;;;;;;;5034278;28;20218;-60
2021/08/14 02:44:01;;;;;;;7.53;5.37;;;;;;;;;;5034268;28;20221;-59
2021/08/14 02:46:26;;;;;;;7.77;4.93;;;;;;;;;;5033519;28;20561;-59
2021/08/14 02:48:51;;;;;;;8.97;5.60;;;;;;;;;;5034223;28;20221;-61
2021/08/14 02:51:17;;;;;;;7.70;5.43;;;;;;;;;;5033711;28;20233;-60
2021/08/14 02:53:42;;;;;;;8.97;6.27;;;;;;;;;;5034017;28;20233;-60
2021/08/14 02:56:07;;;;;;;6.60;5.93;;;;;;;;;;5033733;28;20695;-61
2021/08/14 02:58:33;;;;;;;8.87;5.90;;;;;;;;;;5034043;28;20213;-59
2021/08/14 03:00:58;;;;;;;11.70;7.03;;;;;;;;;;5033966;28;20662;-60
2021/08/14 03:03:23;;;;;;;6.30;5.70;;;;;;;;;;5032682;28;20253;-61
2021/08/14 03:05:48;;;;;;;7.60;6.10;;;;;;;;;;5034058;28;20221;-60
2021/08/14 03:08:14;;;;;;;6.07;5.47;;;;;;;;;;5033624;28;20295;-60
2021/08/14 03:10:40;;;;;;;8.30;5.77;;;;;;;;;;5033843;28;20221;-60
2021/08/14 03:13:05;;;;;;;8.40;6.00;;;;;;;;;;5033540;28;20692;-60
2021/08/14 03:15:31;;;;;;;7.10;5.60;;;;;;;;;;5033514;28;20536;-59
2021/08/14 03:17:56;;;;;;;6.80;5.17;;;;;;;;;;5032846;28;20280;-60
2021/08/14 03:20:21;;;;;;;7.27;5.03;;;;;;;;;;5033433;28;20214;-59
2021/08/14 03:22:46;;;;;;;10.40;5.57;;;;;;;;;;5033696;28;20217;-60
2021/08/14 03:25:12;;;;;;;12.10;5.87;;;;;;;;;;5033297;28;20222;-60
2021/08/14 03:27:37;;;;;;;6.33;5.10;;;;;;;;;;5033677;28;20301;-60
2021/08/14 03:30:04;;;;;;;5.40;4.90;;;;;;;;;;5033751;28;20217;-60
2021/08/14 03:32:29;;;;;;;5.83;5.23;;;;;;;;;;5033195;28;20622;-60
2021/08/14 03:34:54;;;;;;;6.00;5.30;;;;;;;;;;5033653;28;20467;-60
2021/08/14 03:37:19;;;;;;;11.43;5.90;;;;;;;;;;5032357;28;20292;-60
2021/08/14 03:39:44;;;;;;;6.63;5.13;;;;;;;;;;5033576;28;20221;-60
2021/08/14 03:42:10;;;;;;;5.50;4.87;;;;;;;;;;5033226;28;20717;-60
2021/08/14 03:44:35;;;;;;;7.20;4.70;;;;;;;;;;5033638;28;20217;-60
2021/08/14 03:47:00;;;;;;;8.73;5.17;;;;;;;;;;5033587;28;20232;-60
2021/08/14 03:49:26;;;;;;;7.40;5.43;;;;;;;;;;5033180;28;20226;-60
2021/08/14 03:51:51;;;;;;;6.80;4.87;;;;;;;;;;5033687;28;20598;-60
2021/08/14 03:54:16;;;;;;;7.90;4.80;;;;;;;;;;5033197;28;20242;-59
2021/08/14 03:56:41;;;;;;;7.77;6.20;;;;;;;;;;5033506;28;20246;-59
2021/08/14 03:59:07;;;;;;;9.00;5.50;;;;;;;;;;5034657;28;20626;-60
2021/08/14 04:01:32;;;;;;;8.43;6.00;;;;;;;;;;5036871;28;20308;-59
2021/08/14 04:03:58;;;;;;;8.50;6.40;;;;;;;;;;5037315;28;20235;-59
2021/08/14 04:06:23;;;;;;;7.37;4.77;;;;;;;;;;5036836;28;20221;-60
2021/08/14 04:08:48;;;;;;;8.33;5.57;;;;;;;;;;5037171;28;20221;-60
2021/08/14 04:11:13;;;;;;;4.83;4.20;;;;;;;;;;5036631;28;20276;-60
2021/08/14 04:13:39;;;;;;;7.13;5.40;;;;;;;;;;5036644;28;20312;-60
2021/08/14 04:16:04;;;;;;;10.13;5.53;;;;;;;;;;5037268;28;20653;-59
2021/08/14 04:18:29;;;;;;;10.63;5.13;;;;;;;;;;5036642;28;20217;-61
2021/08/14 04:20:55;;;;;;;13.13;5.80;;;;;;;;;;5036915;28;20616;-59
2021/08/14 04:23:21;;;;;;;7.53;4.60;;;;;;;;;;5036536;28;20350;-60
2021/08/14 04:25:46;;;;;;;10.57;5.17;;;;;;;;;;5036834;28;20221;-60
2021/08/14 04:28:11;;;;;;;10.80;5.00;;;;;;;;;;5036398;28;20229;-61
2021/08/14 04:30:36;;;;;;;7.73;4.27;;;;;;;;;;5036478;28;20313;-60
2021/08/14 04:33:02;;;;;;;8.13;5.97;;;;;;;;;;5036680;28;20233;-59
2021/08/14 04:35:27;;;;;;;8.13;4.70;;;;;;;;;;5036303;28;20225;-60
2021/08/14 04:37:52;;;;;;;9.63;6.00;;;;;;;;;;5036648;28;20230;-60
2021/08/14 04:40:17;;;;;;;8.90;5.03;;;;;;;;;;5036071;28;20658;-60
2021/08/14 04:42:43;;;;;;;9.53;5.27;;;;;;;;;;5036537;28;20300;-59
2021/08/14 04:45:09;;;;;;;7.70;4.80;;;;;;;;;;5036524;28;20248;-59
2021/08/14 04:47:35;;;;;;;6.93;4.60;;;;;;;;;;5036023;28;20218;-60
2021/08/14 04:50:00;;;;;;;7.60;4.67;;;;;;;;;;5036339;28;20472;-60
2021/08/14 04:52:26;;;;;;;9.83;4.10;;;;;;;;;;5035947;28;20325;-60
2021/08/14 04:54:52;;;;;;;11.07;6.03;;;;;;;;;;5036372;28;20222;-60
2021/08/14 04:57:17;;;;;;;10.67;4.80;;;;;;;;;;5035809;28;20465;-60
2021/08/14 04:59:42;;;;;;;9.37;4.60;;;;;;;;;;5036200;28;20304;-59
2021/08/14 05:02:08;;;;;;;7.57;4.70;;;;;;;;;;5036213;28;20225;-61
2021/08/14 05:04:33;;;;;;;8.27;4.93;;;;;;;;;;5035769;28;20647;-60
2021/08/14 05:07:00;;;;;;;5.60;4.40;;;;;;;;;;5036170;28;20224;-60
2021/08/14 05:09:25;;;;;;;9.90;4.40;;;;;;;;;;5035225;28;20218;-59
2021/08/14 05:11:51;;;;;;;8.97;4.47;;;;;;;;;;5036072;28;20535;-60
2021/08/14 05:14:16;;;;;;;9.37;4.57;;;;;;;;;;5035449;28;20309;-60
2021/08/14 05:16:41;;;;;;;10.93;5.60;;;;;;;;;;5035841;28;20214;-59
2021/08/14 05:19:07;;;;;;;7.93;4.70;;;;;;;;;;5035694;28;20685;-60
2021/08/14 05:21:33;;;;;;;13.30;5.30;;;;;;;;;;5035185;28;20225;-60
2021/08/14 05:23:59;;;;;;;9.33;4.40;;;;;;;;;;5035682;28;20539;-59
2021/08/14 05:26:24;;;;;;;7.73;4.33;;;;;;;;;;5035403;28;20463;-59
2021/08/14 05:28:49;;;;;;;8.27;4.13;;;;;;;;;;5034720;28;20222;-60
2021/08/14 05:31:14;;;;;;;10.90;5.70;;;;;;;;;;5035249;28;20305;-61
2021/08/14 05:33:40;;;;;;;8.77;4.60;;;;;;;;;;5034281;28;20222;-60
2021/08/14 05:36:08;;;;;;;8.17;5.03;;;;;;;;;;5053610;28;20221;-58
2021/08/14 05:38:34;;;;;;;6.33;5.17;;;;;;;;;;5052692;28;20351;-58
2021/08/14 05:40:59;;;;;;;8.17;4.93;;;;;;;;;;5065907;28;20547;-59
2021/08/14 05:43:24;;;;;;;8.60;5.53;;;;;;;;;;5063847;28;20236;-59
2021/08/14 05:45:49;;;;;;;10.07;5.67;;;;;;;;;;5061888;28;20307;-59
2021/08/14 05:48:15;;;;;;;7.17;4.43;;;;;;;;;;5064486;28;20218;-60
2021/08/14 05:50:40;;;;;;;12.03;5.50;;;;;;;;;;5067448;28;20236;-61
2021/08/14 05:53:05;;;;;;;7.50;4.90;;;;;;;;;;5055149;28;20233;-59
2021/08/14 05:55:30;;;;;;;10.40;5.37;;;;;;;;;;5061083;28;20603;-59
2021/08/14 05:57:56;;;;;;;11.63;5.67;;;;;;;;;;5065207;28;20287;-58
2021/08/14 06:00:22;;;;;;;9.97;6.10;;;;;;;;;;5067542;28;20732;-59
2021/08/14 06:02:48;;;;;;;15.40;5.73;;;;;;;;;;5064479;28;20309;-59
2021/08/14 06:05:13;;;;;;;10.80;5.10;;;;;;;;;;5061420;28;20220;-59
2021/08/14 06:07:38;;;;;;;6.43;4.90;;;;;;;;;;5064634;28;20970;-60
2021/08/14 06:10:08;;;;;;;9.53;6.13;;;;;;;;;;5064363;28;20229;-60
2021/08/14 06:12:33;;;;;;;8.40;5.07;;;;;;;;;;5063994;28;20236;-61
2021/08/14 06:14:58;;;;;;;6.37;4.63;;;;;;;;;;5060813;28;20536;-60
2021/08/14 06:17:24;;;;;;;8.60;4.97;;;;;;;;;;5064542;28;20232;-60
2021/08/14 06:19:49;;;;;;;7.20;5.37;;;;;;;;;;5067630;28;20247;-59
2021/08/14 06:22:14;;;;;;;7.53;5.17;;;;;;;;;;5063290;28;20216;-59
2021/08/14 06:24:40;;;;;;;7.80;5.70;;;;;;;;;;5059466;28;20221;-59
2021/08/14 06:27:05;;;;;;;10.67;4.90;;;;;;;;;;5065372;28;20319;-61
2021/08/14 06:29:30;;;;;;;6.80;5.17;;;;;;;;;;5067299;28;20224;-59
2021/08/14 06:31:56;;;;;;;7.07;4.80;;;;;;;;;;5063123;28;20664;-59
2021/08/14 06:34:21;;;;;;;8.80;4.80;;;;;;;;;;5052708;28;20214;-59
2021/08/14 06:36:46;;;;;;;11.53;5.20;;;;;;;;;;5064178;28;20224;-61
2021/08/14 06:39:11;;;;;;;9.43;4.77;;;;;;;;;;5060813;28;20228;-60
2021/08/14 06:41:37;;;;;;;7.87;5.17;;;;;;;;;;5061591;28;20342;-59
2021/08/14 06:44:02;;;;;;;11.03;5.20;;;;;;;;;;5059206;28;20672;-59
2021/08/14 06:46:28;;;;;;;10.07;5.20;;;;;;;;;;5072700;28;20220;-59
2021/08/14 06:48:53;;;;;;;9.30;5.40;;;;;;;;;;5060508;28;20228;-59
2021/08/14 06:51:18;;;;;;;8.80;4.67;;;;;;;;;;5062646;28;20328;-61
2021/08/14 06:53:44;;;;;;;9.10;4.23;;;;;;;;;;5067314;28;20228;-59
2021/08/14 06:56:09;;;;;;;8.17;4.20;;;;;;;;;;5064309;28;20220;-60
2021/08/14 06:58:34;;;;;;;6.37;4.90;;;;;;;;;;5059736;28;20515;-59
2021/08/14 07:01:00;;;;;;;13.77;5.60;;;;;;;;;;5063986;28;20304;-60
2021/08/14 07:03:25;;;;;;;10.20;5.30;;;;;;;;;;5066996;28;20593;-59
2021/08/14 07:05:50;;;;;;;7.17;4.30;;;;;;;;;;5063381;28;20312;-59
2021/08/14 07:08:15;;;;;;;7.87;5.00;;;;;;;;;;5059979;28;20221;-58
2021/08/14 07:10:41;;;;;;;9.47;5.10;;;;;;;;;;5064419;28;20232;-60
2021/08/14 07:13:06;;;;;;;7.47;4.40;;;;;;;;;;5066790;28;20253;-59
2021/08/14 07:15:31;;;;;;;6.73;4.60;;;;;;;;;;5061556;28;20220;-58
2021/08/14 07:17:57;;;;;;;4.67;4.27;;;;;;;;;;5060258;28;20232;-59
2021/08/14 07:20:23;;;;;;;4.80;4.07;;;;;;;;;;5065049;28;20224;-60
2021/08/14 07:22:48;;;;;;;5.70;4.00;;;;;;;;;;5066774;28;20285;-59
2021/08/14 07:25:13;;;;;;;11.00;4.20;;;;;;;;;;5061797;28;20716;-58
2021/08/14 07:27:38;;;;;;;7.63;3.93;;;;;;;;;;5058584;28;20217;-58
2021/08/14 07:30:04;;;;;;;8.03;4.60;;;;;;;;;;5065429;28;20569;-58
2021/08/14 07:32:29;;;;;;;8.70;4.47;;;;;;;;;;5066440;28;20304;-60
2021/08/14 07:34:55;;;;;;;5.13;3.90;;;;;;;;;;5063924;28;20561;-60
2021/08/14 07:37:21;;;;;;;6.57;3.97;;;;;;;;;;5049982;28;20216;-62
2021/08/14 07:39:46;;;;;;;6.50;3.93;;;;;;;;;;5065412;28;20597;-59
2021/08/14 07:42:11;;;;;;;6.33;3.97;;;;;;;;;;5070651;28;20539;-59
2021/08/14 07:44:37;;;;;;;8.60;5.20;;;;;;;;;;5068367;28;20291;-59
2021/08/14 07:47:02;;;;;;;6.70;4.20;;;;;;;;;;5063970;28;20713;-59
2021/08/14 07:49:27;;;;;;;7.73;4.57;;;;;;;;;;5065444;28;20287;-58
2021/08/14 07:51:53;;;;;;;7.47;4.27;;;;;;;;;;5070571;28;20224;-59
2021/08/14 07:54:18;;;;;;;6.10;3.70;;;;;;;;;;5068335;28;20252;-59
2021/08/14 07:56:43;;;;;;;8.53;4.00;;;;;;;;;;5062281;28;20227;-60
2021/08/14 07:59:08;;;;;;;7.73;3.97;;;;;;;;;;5066221;28;20303;-60
2021/08/14 08:01:34;;;;;;;5.03;3.73;;;;;;;;;;5070003;28;20225;-59
2021/08/14 08:03:59;;;;;;;8.97;4.10;;;;;;;;;;5067887;28;20318;-59
2021/08/14 08:06:24;;;;;;;7.70;3.37;;;;;;;;;;5063222;28;20220;-59
2021/08/14 08:08:49;;;;;;;5.07;4.00;;;;;;;;;;5066285;28;20316;-59
2021/08/14 08:11:15;;;;;;;11.53;3.93;;;;;;;;;;5070327;28;20230;-59
2021/08/14 08:13:40;;;;;;;5.73;4.00;;;;;;;;;;5066500;28;20287;-58
2021/08/14 08:16:06;;;;;;;5.70;4.00;;;;;;;;;;5062460;28;20225;-59
2021/08/14 08:18:31;;;;;;;7.70;3.90;;;;;;;;;;5065521;28;20286;-59
2021/08/14 08:20:56;;;;;;;5.53;4.10;;;;;;;;;;5070010;28;20225;-59
2021/08/14 08:23:21;;;;;;;6.90;3.87;;;;;;;;;;5066374;28;20219;-59
2021/08/14 08:25:47;;;;;;;8.00;4.80;;;;;;;;;;5062727;28;20739;-59
2021/08/14 08:28:12;;;;;;;4.33;3.57;;;;;;;;;;5066429;28;20218;-60
2021/08/14 08:30:37;;;;;;;9.13;4.80;;;;;;;;;;5069324;28;20308;-60
2021/08/14 08:33:03;;;;;;;9.80;4.57;;;;;;;;;;5065252;28;20232;-60
2021/08/14 08:35:28;;;;;;;9.07;4.07;;;;;;;;;;5057231;28;20220;-60
2021/08/14 08:37:54;;;;;;;10.47;3.87;;;;;;;;;;5056684;28;20670;-60
2021/08/14 08:40:19;;;;;;;5.50;3.63;;;;;;;;;;5062807;28;20626;-59
2021/08/14 08:42:46;;;;;;;9.83;4.70;;;;;;;;;;5066098;28;20221;-58
2021/08/14 08:45:12;;;;;;;6.90;4.40;;;;;;;;;;5067895;28;20221;-59
2021/08/14 08:47:39;;;;;;;10.00;4.40;;;;;;;;;;5065776;28;20466;-59
2021/08/14 08:50:07;;;;;;;6.33;3.63;;;;;;;;;;5062721;28;20231;-59
2021/08/14 08:52:32;;;;;;;8.23;4.20;;;;;;;;;;5065142;28;20528;-60
2021/08/14 08:54:58;;;;;;;7.53;4.07;;;;;;;;;;5069571;28;20468;-61
2021/08/14 08:57:24;;;;;;;6.17;3.97;;;;;;;;;;5065094;28;20258;-60
2021/08/14 08:59:50;;;;;;;4.73;3.70;;;;;;;;;;5061991;28;20240;-59
2021/08/14 09:02:30;;;;;;;7.00;4.03;;;;;;;;;;5065939;28;20535;-60
2021/08/14 09:05:08;;;;;;;6.73;3.33;;;;;;;;;;5068669;28;20601;-58
2021/08/14 09:07:34;;;;;;;6.83;3.77;;;;;;;;;;5069147;28;20807;-63
2021/08/14 09:10:00;;;;;;;7.47;4.60;;;;;;;;;;5048849;28;20463;-65
2021/08/14 09:12:33;;;;;;;4.43;3.70;;;;;;;;;;5062486;28;20245;-65
2021/08/14 09:14:58;;;;;;;11.70;3.53;;;;;;;;;;5049905;28;20466;-65
2021/08/14 09:17:27;;;;;;;5.60;4.37;;;;;;;;;;5062069;28;20826;-65
2021/08/14 09:20:16;;;;;;;5.77;3.80;;;;;;;;;;5066683;28;20232;-64
2021/08/14 09:22:59;;;;;;;5.90;3.80;;;;;;;;;;5068320;28;20547;-63
2021/08/14 09:25:24;;;;;;;7.63;4.00;;;;;;;;;;5068265;28;20466;-64
2021/08/14 09:27:59;;;;;;;5.70;3.70;;;;;;;;;;5056481;28;20456;-64
2021/08/14 09:30:45;;;;;;;5.90;3.70;;;;;;;;;;5067038;28;20216;-65
2021/08/14 09:33:13;;;;;;;5.40;3.57;;;;;;;;;;5052327;28;20459;-65
2021/08/14 09:35:38;;;;;;;9.20;5.23;;;;;;;;;;5054409;28;20491;-65
2021/08/14 09:38:08;;;;;;;6.97;4.03;;;;;;;;;;5057724;28;20463;-65
2021/08/14 09:40:45;;;;;;;6.40;3.57;;;;;;;;;;5061027;28;20243;-64
2021/08/14 09:43:11;;;;;;;6.43;4.23;;;;;;;;;;5061638;28;20802;-64
2021/08/14 09:45:38;;;;;;;6.63;3.90;;;;;;;;;;5048112;28;20894;-64
2021/08/14 09:48:17;;;;;;;5.30;3.43;;;;;;;;;;5061613;28;20464;-64
2021/08/14 09:50:43;;;;;;;5.60;3.97;;;;;;;;;;5051367;28;20938;-65
2021/08/14 09:53:11;;;;;;;5.40;3.30;;;;;;;;;;5061232;28;20470;-64
2021/08/14 09:55:36;;;;;;;6.77;3.77;;;;;;;;;;5065973;28;20314;-64
2021/08/14 09:58:02;;;;;;;4.07;3.40;;;;;;;;;;5067215;28;21013;-65
2021/08/14 10:00:28;;;;;;;4.33;3.10;;;;;;;;;;5063017;28;20229;-65
2021/08/14 10:02:56;;;;;;;4.17;3.17;;;;;;;;;;5061209;28;20525;-64
2021/08/14 10:05:21;;;;;;;6.83;4.30;;;;;;;;;;5064734;28;20234;-63
2021/08/14 10:07:46;;;;;;;8.73;4.60;;;;;;;;;;5068263;28;20466;-65
2021/08/14 10:10:11;;;;;;;5.60;3.40;;;;;;;;;;5045193;28;20228;-64
2021/08/14 10:12:37;;;;;;;5.60;4.20;;;;;;;;;;5060257;28;20709;-65
2021/08/14 10:15:02;;;;;;;4.07;3.57;;;;;;;;;;5067079;28;20221;-65
2021/08/14 10:17:28;;;;;;;7.83;5.90;;;;;;;;;;5067211;28;20270;-64
2021/08/14 10:19:53;;;;;;;5.97;4.60;;;;;;;;;;5060771;28;20656;-66
2021/08/14 10:22:23;;;;;;;5.90;4.40;;;;;;;;;;5059883;28;20225;-65
2021/08/14 10:24:49;;;;;;;7.00;4.90;;;;;;;;;;5066853;28;21111;-60
2021/08/14 10:27:16;;;;;;;7.00;4.43;;;;;;;;;;5066732;28;20975;-61
2021/08/14 10:30:08;;;;;;;5.27;3.97;;;;;;;;;;5060211;28;20228;-60
2021/08/14 10:32:36;;;;;;;7.60;4.70;;;;;;;;;;5058133;28;20467;-61
2021/08/14 10:35:32;;;;;;;6.13;3.50;;;;;;;;;;5063235;28;20534;-59
2021/08/14 10:37:58;;;;;;;6.53;3.90;;;;;;;;;;5054737;28;20447;-60
2021/08/14 10:40:23;;;;;;;7.90;4.30;;;;;;;;;;5060193;28;20547;-59
2021/08/14 10:42:52;;;;;;;5.90;3.70;;;;;;;;;;5063208;28;20664;-59
2021/08/14 10:45:31;;;;;;;6.80;3.20;;;;;;;;;;5067365;28;20568;-59
2021/08/14 10:47:59;;;;;;;7.83;4.07;;;;;;;;;;5066045;28;20447;-60
2021/08/14 10:50:31;;;;;;;7.13;3.83;;;;;;;;;;5059531;28;20471;-59
2021/08/14 10:53:11;;;;;;;6.83;4.07;;;;;;;;;;5060227;28;20974;-58
2021/08/14 10:55:38;;;;;;;5.00;3.80;;;;;;;;;;5050300;28;20545;-60
2021/08/14 10:58:16;;;;;;;4.33;3.23;;;;;;;;;;5060092;28;20546;-59
2021/08/14 11:00:42;;;;;;;6.00;4.00;;;;;;;;;;5062654;28;20787;-59
2021/08/14 11:03:09;;;;;;;6.50;3.80;;;;;;;;;;5067119;28;20460;-59
2021/08/14 11:05:35;;;;;;;4.33;3.13;;;;;;;;;;5063202;28;20216;-59
2021/08/14 11:08:02;;;;;;;6.00;3.90;;;;;;;;;;5059350;28;20461;-60
2021/08/14 11:10:41;;;;;;;6.23;4.27;;;;;;;;;;5064330;28;20554;-60
2021/08/14 11:13:31;;;;;;;4.67;3.70;;;;;;;;;;5066464;28;20459;-59
2021/08/14 11:15:58;;;;;;;5.50;4.07;;;;;;;;;;5066437;28;20550;-60
2021/08/14 11:18:51;;;;;;;6.07;4.13;;;;;;;;;;5061159;28;20466;-59
2021/08/14 11:21:17;;;;;;;5.47;4.00;;;;;;;;;;5059543;28;20602;-59
2021/08/14 11:23:56;;;;;;;6.00;4.40;;;;;;;;;;5062192;28;20576;-60
2021/08/14 11:26:33;;;;;;;11.30;10.10;;;;;;;;;;5046531;28;20371;-59
2021/08/14 11:29:00;;;;;;;9.10;6.33;;;;;;;;;;5059651;28;20479;-61
2021/08/14 11:31:27;;;;;;;6.03;5.13;;;;;;;;;;5064808;28;20470;-59
2021/08/14 11:34:12;;;;;;;9.40;8.40;;;;;;;;;;5066884;28;20475;-59
2021/08/14 11:36:38;;;;;;;6.70;4.83;;;;;;;;;;5040558;28;20774;-60
2021/08/14 11:39:03;;;;;;;5.80;4.67;;;;;;;;;;5065807;28;20467;-60
2021/08/14 11:41:29;;;;;;;4.50;4.03;;;;;;;;;;5065979;28;20519;-60
2021/08/14 11:44:00;;;;;;;6.73;6.10;;;;;;;;;;5059104;28;20223;-60
2021/08/14 11:46:25;;;;;;;19.77;17.70;;;;;;;;;;5060670;28;20217;-59
2021/08/14 11:48:50;;;;;;;5.90;4.17;;;;;;;;;;5066371;28;20460;-59
2021/08/14 11:51:23;;;;;;;9.20;7.73;;;;;;;;;;5065545;28;20220;-60
2021/08/14 11:53:49;;;;;;;8.30;6.50;;;;;;;;;;5059388;28;20297;-59
2021/08/14 11:56:17;;;;;;;4.77;3.40;;;;;;;;;;5058925;28;20919;-59
2021/08/14 11:58:42;;;;;;;8.47;7.70;;;;;;;;;;5046372;28;20520;-60
2021/08/14 12:01:10;;;;;;;8.33;7.57;;;;;;;;;;5058673;28;20558;-60
2021/08/14 12:03:36;;;;;;;14.30;11.43;;;;;;;;;;5066018;28;20560;-59
2021/08/14 12:06:15;;;;;;;4.50;4.07;;;;;;;;;;5065772;28;20459;-60
2021/08/14 12:08:43;;;;;;;8.90;7.40;;;;;;;;;;5049046;28;20295;-59
2021/08/14 12:11:13;;;;;;;8.23;7.40;;;;;;;;;;5059291;28;20455;-60
2021/08/14 12:13:39;;;;;;;8.37;6.40;;;;;;;;;;5064524;28;20533;-60
2021/08/14 12:16:16;;;;;;;5.07;4.17;;;;;;;;;;5066091;28;20446;-59
2021/08/14 12:18:43;;;;;;;5.10;4.50;;;;;;;;;;5062654;28;20216;-60
2021/08/14 12:21:10;;;;;;;8.27;5.93;;;;;;;;;;5062451;28;20466;-59
2021/08/14 12:23:37;;;;;;;5.10;4.50;;;;;;;;;;5066886;28;20473;-59
2021/08/14 12:26:36;;;;;;;5.07;4.57;;;;;;;;;;5069741;28;20463;-59
2021/08/14 12:29:07;;;;;;;7.03;5.80;;;;;;;;;;5056633;28;20477;-60
2021/08/14 12:31:52;;;;;;;7.00;5.07;;;;;;;;;;5068448;28;20479;-60
2021/08/14 12:34:32;;;;;;;7.30;4.90;;;;;;;;;;5070049;28;20505;-61
2021/08/14 12:37:08;;;;;;;6.00;5.40;;;;;;;;;;5044950;28;20458;-60
2021/08/14 12:39:43;;;;;;;6.97;4.27;;;;;;;;;;5066190;28;20479;-61
2021/08/14 12:42:21;;;;;;;7.80;5.50;;;;;;;;;;5069893;28;20443;-61
2021/08/14 12:44:47;;;;;;;9.00;5.53;;;;;;;;;;5069143;28;20534;-61
2021/08/14 12:47:12;;;;;;;9.70;8.33;;;;;;;;;;5063250;28;20550;-61
2021/08/14 12:49:38;;;;;;;12.30;11.20;;;;;;;;;;5069178;28;20579;-61
2021/08/14 12:52:05;;;;;;;6.73;5.80;;;;;;;;;;5063470;28;20236;-59
2021/08/14 12:54:33;;;;;;;11.20;10.10;;;;;;;;;;5064300;28;20249;-60
2021/08/14 12:57:06;;;;;;;17.90;16.37;;;;;;;;;;5067730;28;20458;-60
2021/08/14 12:59:33;;;;;;;10.73;9.73;;;;;;;;;;5069403;28;20486;-59
2021/08/14 13:02:00;;;;;;;12.77;10.20;;;;;;;;;;5056402;28;20471;-60
2021/08/14 13:04:26;;;;;;;9.47;8.50;;;;;;;;;;5068619;28;20476;-60
2021/08/14 13:06:51;;;;;;;7.77;7.00;;;;;;;;;;5061903;28;20877;-58
2021/08/14 13:09:17;;;;;;;15.30;13.80;;;;;;;;;;5064182;28;20228;-61
2021/08/14 13:11:42;;;;;;;17.43;15.73;;;;;;;;;;5068597;28;20294;-60
2021/08/14 13:14:08;;;;;;;9.07;6.93;;;;;;;;;;5068024;28;20317;-59
2021/08/14 13:16:33;;;;;;;15.77;14.20;;;;;;;;;;5061846;28;20652;-59
2021/08/14 13:18:58;;;;;;;10.67;9.60;;;;;;;;;;5063729;28;20228;-60
2021/08/14 13:21:24;;;;;;;8.30;7.53;;;;;;;;;;5067632;28;20232;-60
2021/08/14 13:23:49;;;;;;;9.10;8.30;;;;;;;;;;5066704;28;20303;-60
2021/08/14 13:26:14;;;;;;;7.43;6.57;;;;;;;;;;5062574;28;20220;-61
2021/08/14 13:28:40;;;;;;;6.83;5.80;;;;;;;;;;5065191;28;20244;-60
2021/08/14 13:31:07;;;;;;;7.13;5.70;;;;;;;;;;5069248;28;20233;-60
2021/08/14 13:33:32;;;;;;;6.87;6.13;;;;;;;;;;5067645;28;20546;-60
2021/08/14 13:35:57;;;;;;;13.83;11.80;;;;;;;;;;5051167;28;20498;-60
2021/08/14 13:38:23;;;;;;;10.50;9.43;;;;;;;;;;5063184;28;20216;-62
2021/08/14 13:40:48;;;;;;;10.80;8.83;;;;;;;;;;5062170;28;20275;-60
2021/08/14 13:43:13;;;;;;;7.40;6.70;;;;;;;;;;5062047;28;20221;-60
2021/08/14 13:45:39;;;;;;;8.30;5.90;;;;;;;;;;5068263;28;20685;-60
2021/08/14 13:48:04;;;;;;;9.07;7.30;;;;;;;;;;5069607;28;20311;-60
2021/08/14 13:50:29;;;;;;;4.67;4.27;;;;;;;;;;5062181;28;20227;-61
2021/08/14 13:52:55;;;;;;;9.37;7.50;;;;;;;;;;5062495;28;20233;-60
2021/08/14 13:55:20;;;;;;;6.27;4.80;;;;;;;;;;5071411;28;20700;-60
2021/08/14 13:57:45;;;;;;;7.00;5.90;;;;;;;;;;5063707;28;20223;-62
2021/08/14 14:00:11;;;;;;;8.50;7.23;;;;;;;;;;5060195;28;20550;-60
2021/08/14 14:02:37;;;;;;;6.37;5.77;;;;;;;;;;5065965;28;20294;-61
2021/08/14 14:05:03;;;;;;;7.60;5.90;;;;;;;;;;5068944;28;20232;-61
2021/08/14 14:07:28;;;;;;;4.30;3.77;;;;;;;;;;5065822;28;20465;-60
2021/08/14 14:09:55;;;;;;;6.27;5.63;;;;;;;;;;5060414;28;20281;-60
2021/08/14 14:12:20;;;;;;;4.40;3.97;;;;;;;;;;5064021;28;20653;-59
2021/08/14 14:14:46;;;;;;;6.87;4.83;;;;;;;;;;5068095;28;20533;-59
2021/08/14 14:17:11;;;;;;;6.07;4.97;;;;;;;;;;5064635;28;20662;-60
2021/08/14 14:19:36;;;;;;;5.90;5.30;;;;;;;;;;5057246;28;20307;-61
2021/08/14 14:22:02;;;;;;;8.93;4.63;;;;;;;;;;5063352;28;20381;-60
2021/08/14 14:24:27;;;;;;;6.30;4.50;;;;;;;;;;5060128;28;20234;-59
2021/08/14 14:26:52;;;;;;;9.03;4.87;;;;;;;;;;5064399;28;20243;-59
2021/08/14 14:29:18;;;;;;;8.20;4.77;;;;;;;;;;5067557;28;20252;-60
2021/08/14 14:31:43;;;;;;;7.87;7.10;;;;;;;;;;5063807;28;20223;-61
2021/08/14 14:34:08;;;;;;;8.17;6.10;;;;;;;;;;5060354;28;20682;-61
2021/08/14 14:36:34;;;;;;;8.77;4.90;;;;;;;;;;5049475;28;20218;-61
2021/08/14 14:38:59;;;;;;;5.13;4.40;;;;;;;;;;5066234;28;20236;-61